createdAt,value
2018-10-15T00:00:13.654Z,13.00
2018-10-15T00:02:41.930Z,12.90
2018-10-15T00:05:10.216Z,12.90
2018-10-15T00:07:38.406Z,12.90
2018-10-15T00:10:07.252Z,12.90
2018-10-15T00:12:35.494Z,12.70
2018-10-15T00:15:20.224Z,12.60
2018-10-15T00:17:48.613Z,12.30
2018-10-15T00:20:16.789Z,12.10
2018-10-15T00:22:45.046Z,12.20
2018-10-15T00:25:13.819Z,12.30
2018-10-15T00:27:42.289Z,12.20
2018-10-15T00:30:11.545Z,12.20
2018-10-15T00:32:40.583Z,12.20
2018-10-15T00:35:09.806Z,12.30
2018-10-15T00:37:38.798Z,12.20
2018-10-15T00:40:07.138Z,12.00
2018-10-15T00:42:36.266Z,11.80
2018-10-15T00:45:05.713Z,11.60
2018-10-15T00:47:33.893Z,11.60
2018-10-15T00:50:02.103Z,11.60
2018-10-15T00:52:30.276Z,11.50
2018-10-15T00:54:58.560Z,11.30
2018-10-15T00:57:26.830Z,11.30
2018-10-15T00:59:55.026Z,11.20
2018-10-15T01:02:23.291Z,11.30
2018-10-15T01:04:51.577Z,11.20
2018-10-15T01:07:19.912Z,11.30
2018-10-15T01:09:48.129Z,11.30
2018-10-15T01:12:16.305Z,11.20
2018-10-15T01:14:44.518Z,11.20
2018-10-15T01:17:12.676Z,11.10
2018-10-15T01:19:40.947Z,11.10
2018-10-15T01:22:09.148Z,11.10
2018-10-15T01:24:37.377Z,11.20
2018-10-15T01:27:05.594Z,11.30
2018-10-15T01:29:33.759Z,11.20
2018-10-15T01:32:01.990Z,11.10
2018-10-15T01:34:30.192Z,11.00
2018-10-15T01:36:58.462Z,10.90
2018-10-15T01:39:26.686Z,10.70
2018-10-15T01:41:54.961Z,10.70
2018-10-15T01:44:23.316Z,10.60
2018-10-15T01:46:51.578Z,10.60
2018-10-15T01:49:19.789Z,10.60
2018-10-15T01:51:48.066Z,10.60
2018-10-15T01:54:16.328Z,10.60
2018-10-15T01:56:44.568Z,10.70
2018-10-15T01:59:12.729Z,10.80
2018-10-15T02:01:40.958Z,10.80
2018-10-15T02:04:09.137Z,10.80
2018-10-15T02:06:37.385Z,10.80
2018-10-15T02:09:08.205Z,10.80
2018-10-15T02:11:36.460Z,10.80
2018-10-15T02:14:05.261Z,10.90
2018-10-15T02:16:33.492Z,10.80
2018-10-15T02:19:01.739Z,10.70
2018-10-15T02:21:29.921Z,10.70
2018-10-15T02:23:58.141Z,10.70
2018-10-15T02:26:26.373Z,10.60
2018-10-15T02:28:54.554Z,10.60
2018-10-15T02:31:22.765Z,10.60
2018-10-15T02:33:50.969Z,10.60
2018-10-15T02:36:19.231Z,10.60
2018-10-15T02:38:47.440Z,10.60
2018-10-15T02:41:15.693Z,10.60
2018-10-15T02:43:43.974Z,10.60
2018-10-15T02:46:12.241Z,10.60
2018-10-15T02:48:40.514Z,10.60
2018-10-15T02:51:08.777Z,10.60
2018-10-15T02:53:36.971Z,10.50
2018-10-15T02:56:05.792Z,10.50
2018-10-15T02:58:33.984Z,10.50
2018-10-15T03:01:02.202Z,10.40
2018-10-15T03:03:30.437Z,10.40
2018-10-15T03:05:58.661Z,10.30
2018-10-15T03:08:26.897Z,10.30
2018-10-15T03:10:55.137Z,10.20
2018-10-15T03:13:23.363Z,10.10
2018-10-15T03:15:51.590Z,10.10
2018-10-15T03:18:19.797Z,10.10
2018-10-15T03:20:48.061Z,10.00
2018-10-15T03:23:16.294Z,10.10
2018-10-15T03:25:44.554Z,10.10
2018-10-15T03:28:12.808Z,10.00
2018-10-15T03:30:40.981Z,10.00
2018-10-15T03:35:50.413Z,9.90
2018-10-15T03:38:18.633Z,9.80
2018-10-15T03:40:46.820Z,9.80
2018-10-15T03:43:15.066Z,9.90
2018-10-15T03:45:43.290Z,9.90
2018-10-15T03:48:11.558Z,9.80
2018-10-15T03:50:39.771Z,9.90
2018-10-15T03:53:07.983Z,10.00
2018-10-15T03:55:36.234Z,10.00
2018-10-15T03:58:04.988Z,10.10
2018-10-15T04:00:33.297Z,10.10
2018-10-15T04:03:04.462Z,10.00
2018-10-15T04:05:32.712Z,10.10
2018-10-15T04:08:00.949Z,10.10
2018-10-15T04:10:29.134Z,9.80
2018-10-15T04:12:57.330Z,9.60
2018-10-15T04:15:25.554Z,9.50
2018-10-15T04:17:53.809Z,9.30
2018-10-15T04:20:22.022Z,9.10
2018-10-15T04:22:51.001Z,8.90
2018-10-15T04:25:21.489Z,8.80
2018-10-15T04:27:49.682Z,8.80
2018-10-15T04:30:18.378Z,8.70
2018-10-15T04:32:47.361Z,8.70
2018-10-15T04:35:15.585Z,8.70
2018-10-15T04:37:43.843Z,8.70
2018-10-15T04:40:12.952Z,8.80
2018-10-15T04:42:42.270Z,9.00
2018-10-15T04:45:11.649Z,9.10
2018-10-15T04:47:40.583Z,9.20
2018-10-15T04:50:09.458Z,9.20
2018-10-15T04:52:37.661Z,9.30
2018-10-15T04:55:06.568Z,9.40
2018-10-15T04:57:35.021Z,9.30
2018-10-15T05:00:03.357Z,9.30
2018-10-15T05:02:31.557Z,9.20
2018-10-15T05:04:59.816Z,9.10
2018-10-15T05:07:28.073Z,9.10
2018-10-15T05:09:56.260Z,9.00
2018-10-15T05:12:24.598Z,9.00
2018-10-15T05:14:52.773Z,9.10
2018-10-15T05:17:21.776Z,9.10
2018-10-15T05:19:50.719Z,9.20
2018-10-15T05:22:18.925Z,9.20
2018-10-15T05:24:47.663Z,9.20
2018-10-15T05:27:16.416Z,9.20
2018-10-15T05:29:45.146Z,9.20
2018-10-15T05:32:13.378Z,9.20
2018-10-15T05:34:41.577Z,9.20
2018-10-15T05:37:09.813Z,9.10
2018-10-15T05:39:38.062Z,9.10
2018-10-15T05:42:06.373Z,9.10
2018-10-15T05:44:34.582Z,9.00
2018-10-15T05:47:02.812Z,9.00
2018-10-15T05:49:31.098Z,9.10
2018-10-15T05:51:59.321Z,8.90
2018-10-15T05:54:27.554Z,9.00
2018-10-15T05:56:55.806Z,9.10
2018-10-15T05:59:24.018Z,9.10
2018-10-15T06:01:52.321Z,9.20
2018-10-15T06:04:20.535Z,9.10
2018-10-15T06:06:48.804Z,9.10
2018-10-15T06:09:17.010Z,9.00
2018-10-15T06:11:45.257Z,9.10
2018-10-15T06:14:13.482Z,9.20
2018-10-15T06:16:41.842Z,9.30
2018-10-15T06:19:10.125Z,9.30
2018-10-15T06:21:38.530Z,9.50
2018-10-15T06:24:08.134Z,9.70
2018-10-15T06:26:36.393Z,9.80
2018-10-15T06:29:04.778Z,9.80
2018-10-15T06:31:32.999Z,9.80
2018-10-15T06:34:01.264Z,10.00
2018-10-15T06:36:29.507Z,10.20
2018-10-15T06:38:57.766Z,10.30
2018-10-15T06:41:26.029Z,10.50
2018-10-15T06:43:54.323Z,10.70
2018-10-15T06:46:22.619Z,10.80
2018-10-15T06:48:50.867Z,10.80
2018-10-15T06:51:19.154Z,11.00
2018-10-15T06:53:47.420Z,11.20
2018-10-15T06:56:15.658Z,11.30
2018-10-15T06:58:43.861Z,11.50
2018-10-15T07:01:12.274Z,11.80
2018-10-15T07:03:40.637Z,12.10
2018-10-15T07:06:09.016Z,12.40
2018-10-15T07:08:37.269Z,12.60
2018-10-15T07:11:05.502Z,12.70
2018-10-15T07:13:33.816Z,12.70
2018-10-15T07:16:02.045Z,13.10
2018-10-15T07:18:30.285Z,13.20
2018-10-15T07:20:58.614Z,13.20
2018-10-15T07:23:26.847Z,13.10
2018-10-15T07:25:55.082Z,13.00
2018-10-15T07:28:23.327Z,13.30
2018-10-15T07:30:52.469Z,13.60
2018-10-15T07:33:20.718Z,13.90
2018-10-15T07:35:48.946Z,14.20
2018-10-15T07:38:17.220Z,14.40
2018-10-15T07:40:45.398Z,14.70
2018-10-15T07:43:13.702Z,14.90
2018-10-15T07:45:41.983Z,15.20
2018-10-15T07:48:10.286Z,15.50
2018-10-15T07:50:38.491Z,15.50
2018-10-15T07:53:06.795Z,15.70
2018-10-15T07:55:34.988Z,15.90
2018-10-15T07:58:03.282Z,16.10
2018-10-15T08:00:31.603Z,16.20
2018-10-15T08:02:59.881Z,16.30
2018-10-15T08:05:28.611Z,16.50
2018-10-15T08:07:58.364Z,16.70
2018-10-15T08:10:27.677Z,16.90
2018-10-15T08:12:56.318Z,17.20
2018-10-15T08:15:25.005Z,17.60
2018-10-15T08:17:53.198Z,17.80
2018-10-15T08:20:22.010Z,17.80
2018-10-15T08:22:50.226Z,18.10
2018-10-15T08:25:18.514Z,18.20
2018-10-15T08:27:46.720Z,18.30
2018-10-15T08:30:16.891Z,18.50
2018-10-15T08:32:45.558Z,18.60
2018-10-15T08:35:14.250Z,18.70
2018-10-15T08:37:42.507Z,18.90
2018-10-15T08:40:12.982Z,19.00
2018-10-15T08:42:46.149Z,19.10
2018-10-15T08:45:16.429Z,19.20
2018-10-15T08:47:45.214Z,19.20
2018-10-15T08:50:14.565Z,19.20
2018-10-15T08:52:44.208Z,19.30
2018-10-15T08:55:12.445Z,19.20
2018-10-15T08:57:40.654Z,19.20
2018-10-15T09:00:12.672Z,19.40
2018-10-15T09:02:40.896Z,19.50
2018-10-15T09:05:10.462Z,19.60
2018-10-15T09:07:39.526Z,19.70
2018-10-15T09:10:08.786Z,19.80
2018-10-15T09:12:37.243Z,19.80
2018-10-15T09:15:08.298Z,19.80
2018-10-15T09:17:36.527Z,19.90
2018-10-15T09:20:04.893Z,19.90
2018-10-15T09:22:33.154Z,20.00
2018-10-15T09:25:01.411Z,20.10
2018-10-15T09:27:29.756Z,20.30
2018-10-15T09:29:57.918Z,20.30
2018-10-15T09:32:26.100Z,20.40
2018-10-15T09:34:54.710Z,20.50
2018-10-15T09:37:22.866Z,20.60
2018-10-15T09:39:51.202Z,20.70
2018-10-15T09:42:19.353Z,20.70
2018-10-15T09:44:47.565Z,20.90
2018-10-15T09:47:15.865Z,20.90
2018-10-15T09:49:44.130Z,20.90
2018-10-15T09:52:12.348Z,21.00
2018-10-15T09:54:40.596Z,21.00
2018-10-15T09:57:08.825Z,21.00
2018-10-15T09:59:37.077Z,21.00
2018-10-15T10:02:08.433Z,21.00
2018-10-15T10:04:37.076Z,21.10
2018-10-15T10:07:05.586Z,21.10
2018-10-15T10:09:33.790Z,21.10
2018-10-15T10:12:02.070Z,21.20
2018-10-15T10:14:30.344Z,21.30
2018-10-15T10:16:58.880Z,21.40
2018-10-15T10:19:27.149Z,21.50
2018-10-15T10:21:55.372Z,21.50
2018-10-15T10:24:23.732Z,21.50
2018-10-15T10:26:52.272Z,21.50
2018-10-15T10:29:20.566Z,21.60
2018-10-15T10:31:48.761Z,21.70
2018-10-15T10:34:24.362Z,21.70
2018-10-15T10:36:59.894Z,21.80
2018-10-15T10:39:28.049Z,21.90
2018-10-15T10:41:56.295Z,21.80
2018-10-15T10:44:24.499Z,21.80
2018-10-15T10:46:52.993Z,21.90
2018-10-15T10:49:21.288Z,22.00
2018-10-15T10:51:49.508Z,22.10
2018-10-15T10:54:17.705Z,22.20
2018-10-15T10:56:45.947Z,22.30
2018-10-15T10:59:14.181Z,22.40
2018-10-15T11:01:42.433Z,22.30
2018-10-15T11:04:10.650Z,22.50
2018-10-15T11:06:38.813Z,22.60
2018-10-15T11:09:09.009Z,22.60
2018-10-15T11:11:37.222Z,22.80
2018-10-15T11:14:05.456Z,22.90
2018-10-15T11:16:33.673Z,22.90
2018-10-15T11:19:01.932Z,23.00
2018-10-15T11:21:30.124Z,23.00
2018-10-15T11:23:58.332Z,23.10
2018-10-15T11:26:26.549Z,23.30
2018-10-15T11:28:54.718Z,23.50
2018-10-15T11:31:22.925Z,23.50
2018-10-15T11:33:51.133Z,23.50
2018-10-15T11:36:19.338Z,23.50
2018-10-15T11:38:47.561Z,23.50
2018-10-15T11:41:15.750Z,23.30
2018-10-15T11:43:44.016Z,23.40
2018-10-15T11:46:19.057Z,23.40
2018-10-15T11:48:47.283Z,23.30
2018-10-15T11:51:15.550Z,23.40
2018-10-15T11:53:43.803Z,23.60
2018-10-15T11:56:11.966Z,23.80
2018-10-15T11:58:40.194Z,23.60
2018-10-15T12:01:08.457Z,23.50
2018-10-15T12:03:36.672Z,23.70
2018-10-15T12:06:04.991Z,23.70
2018-10-15T12:08:33.174Z,23.90
2018-10-15T12:11:01.449Z,24.10
2018-10-15T12:13:29.678Z,24.00
2018-10-15T12:15:57.861Z,24.10
2018-10-15T12:18:26.145Z,24.20
2018-10-15T12:20:54.347Z,24.10
2018-10-15T12:23:22.586Z,24.20
2018-10-15T12:25:50.766Z,24.20
2018-10-15T12:28:18.982Z,24.30
2018-10-15T12:30:47.220Z,24.10
2018-10-15T12:33:15.761Z,24.10
2018-10-15T12:35:43.965Z,24.10
2018-10-15T12:38:12.158Z,24.20
2018-10-15T12:40:40.373Z,24.30
2018-10-15T12:43:08.568Z,24.40
2018-10-15T12:45:42.154Z,24.60
2018-10-15T12:48:10.386Z,24.70
2018-10-15T12:50:38.602Z,24.60
2018-10-15T12:53:06.837Z,24.50
2018-10-15T12:55:35.061Z,24.40
2018-10-15T12:58:03.409Z,24.40
2018-10-15T13:00:31.590Z,24.50
2018-10-15T13:02:59.814Z,24.80
2018-10-15T13:05:30.150Z,24.80
2018-10-15T13:07:59.488Z,24.90
2018-10-15T13:10:28.576Z,24.90
2018-10-15T13:12:56.784Z,25.00
2018-10-15T13:15:25.469Z,24.90
2018-10-15T13:17:54.326Z,25.10
2018-10-15T13:20:22.788Z,25.00
2018-10-15T13:22:51.254Z,25.20
2018-10-15T13:25:19.517Z,25.30
2018-10-15T13:27:47.785Z,25.10
2018-10-15T13:30:16.219Z,24.80
2018-10-15T13:32:44.948Z,24.60
2018-10-15T13:35:14.418Z,24.50
2018-10-15T13:37:43.563Z,24.30
2018-10-15T13:40:11.821Z,23.90
2018-10-15T13:42:39.999Z,23.90
2018-10-15T13:45:09.503Z,24.00
2018-10-15T13:47:37.835Z,23.90
2018-10-15T13:50:07.207Z,23.80
2018-10-15T13:52:35.460Z,23.80
2018-10-15T13:55:03.778Z,23.80
2018-10-15T13:57:32.152Z,23.70
2018-10-15T14:00:10.592Z,23.60
2018-10-15T14:02:39.515Z,23.40
2018-10-15T14:05:08.697Z,23.30
2018-10-15T14:07:37.977Z,23.20
2018-10-15T14:10:08.222Z,23.10
2018-10-15T14:12:37.806Z,23.10
2018-10-15T14:15:06.122Z,23.10
2018-10-15T14:17:34.494Z,23.00
2018-10-15T14:20:02.917Z,22.90
2018-10-15T14:22:31.357Z,22.90
2018-10-15T14:24:59.622Z,22.90
2018-10-15T14:27:28.042Z,23.00
2018-10-15T14:29:56.302Z,23.00
2018-10-15T14:32:24.592Z,23.00
2018-10-15T14:34:52.783Z,22.90
2018-10-15T14:37:20.993Z,22.80
2018-10-15T14:39:49.168Z,22.80
2018-10-15T14:42:17.605Z,22.80
2018-10-15T14:44:45.765Z,22.80
2018-10-15T14:47:13.990Z,22.80
2018-10-15T14:49:42.557Z,22.80
2018-10-15T14:52:10.760Z,22.80
2018-10-15T14:54:38.953Z,22.90
2018-10-15T14:57:07.185Z,22.80
2018-10-15T14:59:35.373Z,22.70
2018-10-15T15:02:03.732Z,22.70
2018-10-15T15:04:31.944Z,22.60
2018-10-15T15:07:00.387Z,22.40
2018-10-15T15:09:39.600Z,22.20
2018-10-15T15:12:18.782Z,22.00
2018-10-15T15:14:46.979Z,21.70
2018-10-15T15:17:15.186Z,21.50
2018-10-15T15:19:43.394Z,21.20
2018-10-15T15:22:11.604Z,21.00
2018-10-15T15:24:39.813Z,20.80
2018-10-15T15:27:08.081Z,20.60
2018-10-15T15:29:36.280Z,20.40
2018-10-15T15:32:04.624Z,20.30
2018-10-15T15:34:32.852Z,20.10
2018-10-15T15:37:01.101Z,20.00
2018-10-15T15:39:29.276Z,19.80
2018-10-15T15:41:57.555Z,19.70
2018-10-15T15:44:25.743Z,19.60
2018-10-15T15:46:53.985Z,19.40
2018-10-15T15:49:22.168Z,19.30
2018-10-15T15:51:50.380Z,19.20
2018-10-15T15:54:18.796Z,19.10
2018-10-15T15:56:46.968Z,19.00
2018-10-15T15:59:15.217Z,18.90
2018-10-15T16:01:43.487Z,18.80
2018-10-15T16:04:11.668Z,18.70
2018-10-15T16:06:39.869Z,18.60
2018-10-15T16:09:09.960Z,18.50
2018-10-15T16:11:38.177Z,18.40
2018-10-15T16:14:06.360Z,18.20
2018-10-15T16:16:34.601Z,18.20
2018-10-15T16:19:02.788Z,18.10
2018-10-15T16:21:31.038Z,18.00
2018-10-15T16:23:59.260Z,17.90
2018-10-15T16:26:27.501Z,17.80
2018-10-15T16:28:55.733Z,17.70
2018-10-15T16:31:23.953Z,17.60
2018-10-15T16:33:52.166Z,17.50
2018-10-15T16:36:20.417Z,17.50
2018-10-15T16:38:48.638Z,17.40
2018-10-15T16:41:16.870Z,17.30
2018-10-15T16:43:45.101Z,17.30
2018-10-15T16:46:13.320Z,17.20
2018-10-15T16:48:41.556Z,17.20
2018-10-15T16:51:09.767Z,17.20
2018-10-15T16:53:37.955Z,17.10
2018-10-15T16:56:06.177Z,17.00
2018-10-15T16:58:34.358Z,16.90
2018-10-15T17:01:02.617Z,16.90
2018-10-15T17:03:30.846Z,16.80
2018-10-15T17:05:59.005Z,16.70
2018-10-15T17:08:27.213Z,16.70
2018-10-15T17:10:55.478Z,16.70
2018-10-15T17:13:23.730Z,16.60
2018-10-15T17:15:52.316Z,16.60
2018-10-15T17:18:20.486Z,16.60
2018-10-15T17:20:48.694Z,16.50
2018-10-15T17:23:16.877Z,16.50
2018-10-15T17:25:45.074Z,16.40
2018-10-15T17:28:13.229Z,16.40
2018-10-15T17:30:41.442Z,16.20
2018-10-15T17:33:09.685Z,16.20
2018-10-15T17:35:37.869Z,16.20
2018-10-15T17:38:06.088Z,16.20
2018-10-15T17:40:34.253Z,16.20
2018-10-15T17:43:02.503Z,16.10
2018-10-15T17:45:30.684Z,16.10
2018-10-15T17:47:58.969Z,16.00
2018-10-15T17:50:27.729Z,15.70
2018-10-15T17:52:55.992Z,15.70
2018-10-15T17:55:24.185Z,15.60
2018-10-15T17:57:52.375Z,15.50
2018-10-15T18:00:26.025Z,15.50
2018-10-15T18:02:54.309Z,15.40
2018-10-15T18:05:22.598Z,15.50
2018-10-15T18:07:50.809Z,15.60
2018-10-15T18:10:19.005Z,15.60
2018-10-15T18:12:48.198Z,15.60
2018-10-15T18:15:16.429Z,15.60
2018-10-15T18:17:44.805Z,15.60
2018-10-15T18:20:13.017Z,15.50
2018-10-15T18:22:41.246Z,15.50
2018-10-15T18:25:09.916Z,15.40
2018-10-15T18:34:37.862Z,15.20
2018-10-15T18:37:06.149Z,14.90
2018-10-15T18:39:34.942Z,14.80
2018-10-15T18:42:03.168Z,14.80
2018-10-15T18:44:31.377Z,14.90
2018-10-15T18:46:59.654Z,14.80
2018-10-15T18:49:28.725Z,14.80
2018-10-15T18:51:57.323Z,14.80
2018-10-15T18:54:25.669Z,14.70
2018-10-15T18:56:53.958Z,14.70
2018-10-15T18:59:22.142Z,14.70
2018-10-15T19:01:51.712Z,14.70
2018-10-15T19:04:19.896Z,14.70
2018-10-15T19:06:48.180Z,14.80
2018-10-15T19:09:16.470Z,14.70
2018-10-15T19:11:44.817Z,14.70
2018-10-15T19:14:13.014Z,14.70
2018-10-15T19:16:41.306Z,14.70
2018-10-15T19:19:09.600Z,14.60
2018-10-15T19:21:37.854Z,14.40
2018-10-15T19:24:06.402Z,14.40
2018-10-15T19:26:34.716Z,14.40
2018-10-15T19:29:03.041Z,14.20
2018-10-15T19:31:31.301Z,14.10
2018-10-15T19:34:00.376Z,14.10
2018-10-15T19:36:28.670Z,13.90
2018-10-15T19:38:57.144Z,13.90
2018-10-15T19:41:25.459Z,13.80
2018-10-15T19:43:53.783Z,13.80
2018-10-15T19:46:22.026Z,13.90
2018-10-15T19:48:50.253Z,13.90
2018-10-15T19:51:18.474Z,13.80
2018-10-15T19:53:46.744Z,13.80
2018-10-15T19:56:15.053Z,13.80
2018-10-15T19:58:43.334Z,13.80
2018-10-15T20:01:11.600Z,13.70
2018-10-15T20:03:39.905Z,13.70
2018-10-15T20:06:08.119Z,13.70
2018-10-15T20:08:36.305Z,13.80
2018-10-15T20:11:04.950Z,13.70
2018-10-15T20:13:33.138Z,13.70
2018-10-15T20:16:01.313Z,13.70
2018-10-15T20:18:29.522Z,13.60
2018-10-15T20:20:57.704Z,13.50
2018-10-15T20:23:26.090Z,13.50
2018-10-15T20:25:54.330Z,13.60
2018-10-15T20:28:22.629Z,13.50
2018-10-15T20:30:50.874Z,13.50
2018-10-15T20:33:19.289Z,13.50
2018-10-15T20:35:47.608Z,13.40
2018-10-15T20:38:16.151Z,13.30
2018-10-15T20:40:44.337Z,13.10
2018-10-15T20:43:12.669Z,13.00
2018-10-15T20:45:41.133Z,13.00
2018-10-15T20:48:09.377Z,12.90
2018-10-15T20:50:37.618Z,12.90
2018-10-15T20:53:05.836Z,12.80
2018-10-15T20:55:34.040Z,12.70
2018-10-15T20:58:02.213Z,12.70
2018-10-15T21:00:30.457Z,12.70
2018-10-15T21:02:58.674Z,12.60
2018-10-15T21:05:26.889Z,12.70
2018-10-15T21:07:55.090Z,12.70
2018-10-15T21:10:23.301Z,12.70
2018-10-15T21:12:51.506Z,12.70
2018-10-15T21:15:19.729Z,12.60
2018-10-15T21:17:47.918Z,12.60
2018-10-15T21:20:16.134Z,12.60
2018-10-15T21:22:44.357Z,12.50
2018-10-15T21:25:12.559Z,12.50
2018-10-15T21:27:40.785Z,12.40
2018-10-15T21:30:09.857Z,12.40
2018-10-15T21:32:39.069Z,12.40
2018-10-15T21:35:08.449Z,12.40
2018-10-15T21:37:36.669Z,12.30
2018-10-15T21:40:05.403Z,12.30
2018-10-15T21:42:33.581Z,12.20
2018-10-15T21:45:01.794Z,12.00
2018-10-15T21:47:29.987Z,12.00
2018-10-15T21:49:58.237Z,11.90
2018-10-15T21:52:26.469Z,11.90
2018-10-15T21:54:54.677Z,11.80
2018-10-15T21:57:22.948Z,11.70
2018-10-15T21:59:51.213Z,11.80
2018-10-15T22:02:19.497Z,11.90
2018-10-15T22:04:47.808Z,12.00
2018-10-15T22:07:16.113Z,12.00
2018-10-15T22:09:44.335Z,12.00
2018-10-15T22:12:12.537Z,11.80
2018-10-15T22:14:40.763Z,11.80
2018-10-15T22:17:08.963Z,11.90
2018-10-15T22:19:37.213Z,11.90
2018-10-15T22:22:05.456Z,12.00
2018-10-15T22:24:33.646Z,12.00
2018-10-15T22:27:01.866Z,12.00
2018-10-15T22:29:30.038Z,12.00
2018-10-15T22:31:58.257Z,11.90
2018-10-15T22:34:26.433Z,11.90
2018-10-15T22:36:54.628Z,11.90
2018-10-15T22:39:22.828Z,11.90
2018-10-15T22:41:51.001Z,11.90
2018-10-15T22:44:25.893Z,11.90
2018-10-15T22:46:54.057Z,11.90
2018-10-15T22:49:22.265Z,11.90
2018-10-15T22:51:50.421Z,11.80
2018-10-15T22:54:18.634Z,11.70
2018-10-15T22:56:46.849Z,11.60
2018-10-15T22:59:15.044Z,11.60
2018-10-15T23:01:43.245Z,11.40
2018-10-15T23:04:11.425Z,11.40
2018-10-15T23:06:39.665Z,11.40
2018-10-15T23:09:08.839Z,11.40
2018-10-15T23:11:37.025Z,11.40
2018-10-15T23:14:05.244Z,11.40
2018-10-15T23:16:33.423Z,11.20
2018-10-15T23:19:01.623Z,11.20
2018-10-15T23:21:29.821Z,11.10
2018-10-15T23:23:58.022Z,11.10
2018-10-15T23:26:26.251Z,11.00
2018-10-15T23:28:54.421Z,11.00
2018-10-15T23:31:22.662Z,11.00
2018-10-15T23:33:57.673Z,11.00
2018-10-15T23:36:25.913Z,11.00
2018-10-15T23:38:54.150Z,10.90
2018-10-15T23:41:22.322Z,10.90
2018-10-15T23:43:50.529Z,10.80
2018-10-15T23:46:18.810Z,10.70
2018-10-15T23:48:47.004Z,10.60
2018-10-15T23:51:15.221Z,10.40
2018-10-15T23:53:43.402Z,10.40
2018-10-15T23:56:11.601Z,10.40
2018-10-15T23:58:39.846Z,10.40
